createdAt,value
2022-10-22T00:01:03.077Z,15.13
2022-10-22T00:03:32.783Z,17.53
2022-10-22T00:06:00.706Z,15.10
2022-10-22T00:08:29.138Z,16.10
2022-10-22T00:10:57.237Z,15.17
2022-10-22T00:13:25.282Z,18.07
2022-10-22T00:15:53.271Z,18.13
2022-10-22T00:18:21.583Z,18.47
2022-10-22T00:20:50.867Z,18.60
2022-10-22T00:23:19.037Z,18.83
2022-10-22T00:25:46.974Z,18.20
2022-10-22T00:28:15.041Z,18.67
2022-10-22T00:30:43.286Z,17.00
2022-10-22T00:33:12.800Z,15.53
2022-10-22T00:35:41.120Z,16.50
2022-10-22T00:38:12.780Z,15.40
2022-10-22T00:40:40.728Z,17.27
2022-10-22T00:43:12.359Z,20.13
2022-10-22T00:45:40.271Z,16.73
2022-10-22T00:48:10.545Z,16.63
2022-10-22T00:50:42.734Z,15.90
2022-10-22T00:53:16.145Z,15.97
2022-10-22T00:55:46.501Z,15.73
2022-10-22T00:58:15.371Z,17.17
2022-10-22T01:00:44.113Z,20.80
2022-10-22T01:03:12.666Z,17.87
2022-10-22T01:05:44.511Z,14.40
2022-10-22T01:08:26.701Z,16.23
2022-10-22T01:11:05.910Z,16.03
2022-10-22T01:13:41.737Z,14.97
2022-10-22T01:16:12.939Z,17.27
2022-10-22T01:18:49.288Z,15.97
2022-10-22T01:21:26.157Z,14.80
2022-10-22T01:24:37.560Z,17.27
2022-10-22T01:27:16.476Z,18.80
2022-10-22T01:29:49.530Z,15.93
2022-10-22T01:32:20.679Z,17.93
2022-10-22T01:34:55.000Z,16.03
2022-10-22T01:37:25.707Z,17.80
2022-10-22T01:39:55.185Z,16.17
2022-10-22T01:42:22.983Z,18.63
2022-10-22T01:44:52.457Z,16.10
2022-10-22T01:47:35.560Z,17.23
2022-10-22T01:50:24.650Z,19.27
2022-10-22T01:53:03.858Z,17.57
2022-10-22T01:55:40.582Z,17.20
2022-10-22T01:58:21.577Z,16.87
2022-10-22T02:01:00.816Z,17.90
2022-10-22T02:03:36.748Z,19.73
2022-10-22T02:06:10.996Z,19.67
2022-10-22T02:08:40.540Z,17.03
2022-10-22T02:11:08.799Z,19.27
2022-10-22T02:13:42.296Z,16.70
2022-10-22T02:16:15.964Z,18.93
2022-10-22T02:18:47.557Z,16.23
2022-10-22T02:21:16.833Z,17.50
2022-10-22T02:23:45.381Z,18.73
2022-10-22T02:26:20.886Z,19.27
2022-10-22T02:28:57.864Z,15.67
2022-10-22T02:31:31.260Z,16.77
2022-10-22T02:34:04.800Z,16.07
2022-10-22T02:36:33.612Z,18.03
2022-10-22T02:39:02.795Z,16.77
2022-10-22T02:41:31.061Z,19.93
2022-10-22T02:43:59.123Z,21.33
2022-10-22T02:46:28.889Z,21.20
2022-10-22T02:48:56.796Z,17.03
2022-10-22T02:51:24.924Z,17.10
2022-10-22T02:53:52.760Z,18.53
2022-10-22T02:56:20.938Z,20.83
2022-10-22T02:58:48.819Z,18.53
2022-10-22T03:01:16.685Z,17.57
2022-10-22T03:03:46.237Z,19.30
2022-10-22T03:06:14.582Z,14.90
2022-10-22T03:08:42.770Z,18.77
2022-10-22T03:11:10.904Z,17.47
2022-10-22T03:13:38.907Z,22.87
2022-10-22T03:16:07.822Z,20.03
2022-10-22T03:18:35.968Z,19.10
2022-10-22T03:21:11.186Z,15.97
2022-10-22T03:23:41.507Z,18.23
2022-10-22T03:26:10.350Z,18.00
2022-10-22T03:28:39.667Z,17.60
2022-10-22T03:31:07.569Z,17.37
2022-10-22T03:33:35.537Z,18.13
2022-10-22T03:36:06.837Z,19.63
2022-10-22T03:38:36.310Z,17.30
2022-10-22T03:41:04.371Z,18.10
2022-10-22T03:43:35.423Z,16.07
2022-10-22T03:46:03.321Z,17.37
2022-10-22T03:48:31.496Z,16.50
2022-10-22T03:50:59.468Z,18.73
2022-10-22T03:53:28.766Z,17.93
2022-10-22T03:55:56.711Z,18.07
2022-10-22T03:58:24.575Z,18.67
2022-10-22T04:00:52.450Z,17.80
2022-10-22T04:03:20.406Z,16.37
2022-10-22T04:05:48.269Z,19.63
2022-10-22T04:08:16.075Z,15.70
2022-10-22T04:10:52.293Z,18.50
2022-10-22T04:13:20.111Z,16.33
2022-10-22T04:15:47.977Z,16.90
2022-10-22T04:18:16.149Z,14.37
2022-10-22T04:20:44.003Z,15.30
2022-10-22T04:23:11.854Z,17.17
2022-10-22T04:25:39.822Z,18.60
2022-10-22T04:28:10.150Z,16.63
2022-10-22T04:30:38.239Z,16.00
2022-10-22T04:33:06.210Z,15.27
2022-10-22T04:35:34.079Z,19.43
2022-10-22T04:38:01.977Z,15.60
2022-10-22T04:40:29.994Z,14.63
2022-10-22T04:42:58.020Z,15.87
2022-10-22T04:45:27.374Z,15.93
2022-10-22T04:47:55.366Z,14.93
2022-10-22T04:50:23.240Z,14.10
2022-10-22T04:52:51.045Z,14.60
2022-10-22T04:55:19.292Z,17.23
2022-10-22T04:57:47.119Z,14.47
2022-10-22T05:00:16.627Z,18.90
2022-10-22T05:02:50.734Z,14.83
2022-10-22T05:05:18.722Z,19.43
2022-10-22T05:07:46.543Z,20.17
2022-10-22T05:10:14.476Z,15.90
2022-10-22T05:12:42.323Z,20.80
2022-10-22T05:15:10.905Z,34.83
2022-10-22T05:17:39.433Z,30.87
2022-10-22T05:20:10.305Z,31.00
2022-10-22T05:22:38.136Z,31.63
2022-10-22T05:25:06.840Z,31.33
2022-10-22T05:27:34.640Z,44.43
2022-10-22T05:30:02.463Z,70.73
2022-10-22T05:32:30.397Z,57.57
2022-10-22T05:34:58.193Z,59.23
2022-10-22T05:37:27.484Z,38.17
2022-10-22T05:40:06.506Z,26.90
2022-10-22T05:42:43.448Z,29.97
2022-10-22T05:45:11.786Z,27.43
2022-10-22T05:47:39.564Z,23.77
2022-10-22T05:50:08.378Z,28.63
2022-10-22T05:52:37.858Z,37.97
2022-10-22T05:55:06.675Z,35.77
2022-10-22T05:57:34.474Z,43.27
2022-10-22T06:00:02.460Z,25.70
2022-10-22T06:02:30.293Z,28.37
2022-10-22T06:04:58.158Z,19.17
2022-10-22T06:07:26.083Z,24.63
2022-10-22T06:09:55.500Z,27.80
2022-10-22T06:12:23.392Z,19.17
2022-10-22T06:14:51.237Z,29.73
2022-10-22T06:17:19.987Z,21.53
2022-10-22T06:19:47.797Z,21.97
2022-10-22T06:22:15.767Z,27.70
2022-10-22T06:24:45.112Z,33.00
2022-10-22T06:27:14.522Z,28.67
2022-10-22T06:29:42.419Z,28.90
2022-10-22T06:32:10.260Z,30.57
2022-10-22T06:34:38.099Z,18.27
2022-10-22T06:37:06.045Z,27.03
2022-10-22T06:39:33.827Z,25.27
2022-10-22T06:42:01.633Z,20.60
2022-10-22T06:44:30.936Z,23.43
2022-10-22T06:46:58.750Z,22.73
2022-10-22T06:49:26.631Z,20.33
2022-10-22T06:51:55.376Z,19.27
2022-10-22T06:54:23.857Z,21.77
2022-10-22T06:56:51.701Z,16.10
2022-10-22T06:59:19.615Z,16.90
2022-10-22T07:01:48.855Z,19.57
2022-10-22T07:04:16.731Z,16.37
2022-10-22T07:06:44.885Z,16.80
2022-10-22T07:09:12.849Z,20.07
2022-10-22T07:11:43.011Z,17.90
2022-10-22T07:14:11.838Z,20.83
2022-10-22T07:16:42.109Z,19.47
2022-10-22T07:19:11.363Z,18.63
2022-10-22T07:21:39.433Z,20.03
2022-10-22T07:24:08.085Z,18.77
2022-10-22T07:26:36.924Z,18.70
2022-10-22T07:29:05.488Z,19.63
2022-10-22T07:31:33.387Z,21.90
2022-10-22T07:34:01.206Z,22.00
2022-10-22T07:36:30.502Z,23.67
2022-10-22T07:39:00.222Z,24.57
2022-10-22T07:41:29.033Z,22.17
2022-10-22T07:43:57.348Z,22.47
2022-10-22T07:46:26.336Z,20.40
2022-10-22T07:48:54.444Z,22.53
2022-10-22T07:51:22.683Z,21.77
2022-10-22T07:53:51.916Z,21.97
2022-10-22T07:56:21.669Z,19.20
2022-10-22T07:58:49.572Z,18.20
2022-10-22T08:01:17.628Z,20.37
2022-10-22T08:03:45.707Z,18.50
2022-10-22T08:06:15.097Z,19.30
2022-10-22T08:08:45.839Z,18.40
2022-10-22T08:11:15.182Z,17.93
2022-10-22T08:13:45.707Z,17.33
2022-10-22T08:16:14.150Z,18.33
2022-10-22T08:18:42.007Z,16.17
2022-10-22T08:21:09.918Z,17.37
2022-10-22T08:23:37.988Z,16.50
2022-10-22T08:26:06.831Z,15.13
2022-10-22T08:28:37.730Z,15.37
2022-10-22T08:31:06.145Z,15.03
2022-10-22T08:33:34.049Z,14.83
2022-10-22T08:36:02.011Z,15.07
2022-10-22T08:38:31.499Z,14.20
2022-10-22T08:41:10.192Z,13.23
2022-10-22T08:44:09.269Z,15.93
2022-10-22T08:47:16.445Z,16.93
2022-10-22T08:49:47.055Z,15.03
2022-10-22T08:52:17.999Z,13.83
2022-10-22T08:54:53.663Z,13.73
2022-10-22T08:57:39.215Z,15.63
2022-10-22T09:00:14.577Z,17.50
2022-10-22T09:02:53.767Z,12.60
2022-10-22T09:05:34.130Z,13.40
2022-10-22T09:08:02.125Z,14.67
2022-10-22T09:10:37.442Z,14.97
2022-10-22T09:13:05.796Z,44.33
2022-10-22T09:15:34.980Z,21.93
2022-10-22T09:18:17.077Z,14.53
2022-10-22T09:20:50.842Z,28.07
2022-10-22T09:23:29.970Z,19.10
2022-10-22T09:25:58.904Z,14.00
2022-10-22T09:28:26.862Z,12.47
2022-10-22T09:30:56.138Z,14.33
2022-10-22T09:33:27.719Z,9.87
2022-10-22T09:35:57.321Z,11.77
2022-10-22T09:38:28.578Z,17.10
2022-10-22T09:40:58.275Z,15.60
2022-10-22T09:43:26.277Z,22.60
2022-10-22T09:46:01.045Z,14.93
2022-10-22T09:48:36.601Z,29.57
2022-10-22T09:51:08.204Z,15.77
2022-10-22T09:53:38.956Z,15.53
2022-10-22T09:56:10.444Z,21.40
2022-10-22T09:58:45.960Z,12.47
2022-10-22T10:01:21.508Z,17.23
2022-10-22T10:03:50.239Z,11.03
2022-10-22T10:06:20.562Z,9.90
2022-10-22T10:08:49.965Z,34.27
2022-10-22T10:11:29.253Z,13.93
2022-10-22T10:14:08.159Z,31.20
2022-10-22T10:16:46.259Z,13.68
2022-10-22T10:19:39.484Z,9.55
2022-10-22T10:22:17.836Z,11.85
2022-10-22T10:24:59.083Z,9.20
2022-10-22T10:27:36.367Z,9.18
2022-10-22T10:30:11.196Z,8.07
2022-10-22T10:32:56.435Z,9.50
2022-10-22T10:35:27.817Z,7.90
2022-10-22T10:38:12.310Z,9.73
2022-10-22T10:40:46.752Z,19.10
2022-10-22T10:43:20.904Z,10.63
2022-10-22T10:45:58.521Z,12.23
2022-10-22T10:48:41.849Z,13.43
2022-10-22T10:51:20.943Z,10.13
2022-10-22T10:54:02.389Z,6.40
2022-10-22T10:56:39.341Z,11.55
2022-10-22T10:59:19.645Z,6.68
2022-10-22T11:02:04.651Z,7.10
2022-10-22T11:05:12.710Z,7.93
2022-10-22T11:07:44.032Z,8.75
2022-10-22T11:10:21.343Z,7.25
2022-10-22T11:12:52.602Z,8.90
2022-10-22T11:15:29.483Z,9.55
2022-10-22T11:18:04.568Z,11.55
2022-10-22T11:20:46.204Z,11.80
2022-10-22T11:23:20.648Z,9.90
2022-10-22T11:25:51.431Z,10.73
2022-10-22T11:28:25.832Z,7.45
2022-10-22T11:31:01.261Z,8.60
2022-10-22T11:33:35.326Z,11.63
2022-10-22T11:36:09.400Z,12.88
2022-10-22T11:38:38.423Z,7.70
2022-10-22T11:41:10.860Z,9.60
2022-10-22T11:43:57.679Z,5.55
2022-10-22T11:46:47.553Z,8.30
2022-10-22T11:49:25.196Z,6.95
2022-10-22T11:52:07.831Z,29.92
2022-10-22T11:54:45.975Z,16.42
2022-10-22T11:57:28.515Z,9.43
2022-10-22T11:59:59.747Z,7.07
2022-10-22T12:03:03.308Z,8.50
2022-10-22T12:05:37.265Z,6.13
2022-10-22T12:08:19.095Z,11.07
2022-10-22T12:10:56.899Z,5.30
2022-10-22T12:13:27.575Z,6.22
2022-10-22T12:16:00.052Z,7.88
2022-10-22T12:18:32.886Z,7.03
2022-10-22T12:21:00.952Z,5.82
2022-10-22T12:23:35.324Z,8.75
2022-10-22T12:26:05.374Z,12.45
2022-10-22T12:28:39.932Z,8.27
2022-10-22T12:31:08.216Z,9.43
2022-10-22T12:33:39.801Z,7.78
2022-10-22T12:36:08.383Z,4.45
2022-10-22T12:38:47.089Z,6.90
2022-10-22T12:41:15.393Z,9.02
2022-10-22T12:43:43.722Z,6.15
2022-10-22T12:46:14.702Z,6.07
2022-10-22T12:48:44.541Z,5.47
2022-10-22T12:51:17.665Z,7.03
2022-10-22T12:53:48.960Z,8.57
2022-10-22T12:56:22.977Z,23.95
2022-10-22T12:58:58.364Z,11.02
2022-10-22T13:01:28.903Z,8.13
2022-10-22T13:04:07.862Z,11.45
2022-10-22T13:06:37.000Z,11.40
2022-10-22T13:09:14.841Z,8.32
2022-10-22T13:11:50.003Z,7.85
2022-10-22T13:14:22.499Z,6.88
2022-10-22T13:17:05.319Z,13.95
2022-10-22T13:19:49.204Z,11.38
2022-10-22T13:22:34.588Z,7.78
2022-10-22T13:25:21.567Z,10.55
2022-10-22T13:27:52.110Z,14.50
2022-10-22T13:30:23.278Z,6.32
2022-10-22T13:32:53.273Z,6.30
2022-10-22T13:35:24.643Z,9.55
2022-10-22T13:37:52.992Z,7.95
2022-10-22T13:40:22.745Z,18.02
2022-10-22T13:42:50.686Z,9.55
2022-10-22T13:45:19.647Z,9.02
2022-10-22T13:47:52.417Z,9.05
2022-10-22T13:50:21.876Z,6.85
2022-10-22T13:52:53.662Z,11.43
2022-10-22T13:55:25.667Z,7.45
2022-10-22T13:57:54.425Z,10.55
2022-10-22T14:00:26.880Z,8.70
2022-10-22T14:02:58.287Z,7.40
2022-10-22T14:05:26.477Z,9.05
2022-10-22T14:07:54.696Z,7.97
2022-10-22T14:10:25.917Z,8.70
2022-10-22T14:12:54.123Z,10.98
2022-10-22T14:15:24.957Z,8.98
2022-10-22T14:17:55.981Z,15.63
2022-10-22T14:20:27.440Z,10.55
2022-10-22T14:22:55.545Z,11.10
2022-10-22T14:25:27.120Z,9.75
2022-10-22T14:27:54.936Z,12.20
2022-10-22T14:30:25.183Z,7.88
2022-10-22T14:32:53.390Z,6.90
2022-10-22T14:35:23.294Z,8.15
2022-10-22T14:37:51.965Z,14.60
2022-10-22T14:40:21.882Z,20.15
2022-10-22T14:42:52.416Z,9.48
2022-10-22T14:45:22.902Z,10.25
2022-10-22T14:47:51.667Z,8.77
2022-10-22T14:50:20.410Z,10.57
2022-10-22T14:52:48.963Z,12.85
2022-10-22T14:55:18.273Z,7.63
2022-10-22T14:57:46.296Z,9.38
2022-10-22T15:00:18.471Z,8.13
2022-10-22T15:02:47.089Z,9.27
2022-10-22T15:05:15.728Z,11.63
2022-10-22T15:07:44.272Z,15.82
2022-10-22T15:10:12.411Z,10.40
2022-10-22T15:12:40.440Z,17.63
2022-10-22T15:15:09.262Z,10.52
2022-10-22T15:17:38.647Z,7.18
2022-10-22T15:20:07.351Z,8.63
2022-10-22T15:22:36.355Z,11.02
2022-10-22T15:25:09.882Z,10.40
2022-10-22T15:27:37.873Z,8.32
2022-10-22T15:30:07.409Z,7.22
2022-10-22T15:32:35.515Z,8.40
2022-10-22T15:35:06.035Z,9.75
2022-10-22T15:37:33.847Z,9.68
2022-10-22T15:40:03.762Z,8.82
2022-10-22T15:42:31.772Z,8.30
2022-10-22T15:45:00.141Z,8.82
2022-10-22T15:47:29.620Z,6.45
2022-10-22T15:49:57.874Z,8.70
2022-10-22T15:52:27.334Z,8.95
2022-10-22T15:54:55.158Z,6.82
2022-10-22T15:57:23.134Z,8.15
2022-10-22T15:59:51.947Z,7.05
2022-10-22T16:02:19.839Z,9.60
2022-10-22T16:04:48.106Z,4.68
2022-10-22T16:07:15.908Z,4.90
2022-10-22T16:09:45.184Z,4.37
2022-10-22T16:12:15.288Z,6.63
2022-10-22T16:14:45.096Z,4.10
2022-10-22T16:17:13.272Z,5.10
2022-10-22T16:19:41.083Z,5.60
2022-10-22T16:22:11.535Z,8.27
2022-10-22T16:24:41.044Z,7.27
2022-10-22T16:27:11.201Z,5.00
2022-10-22T16:29:40.208Z,8.52
2022-10-22T16:32:08.319Z,8.33
2022-10-22T16:34:36.160Z,6.60
2022-10-22T16:37:10.235Z,7.25
2022-10-22T16:39:38.407Z,6.23
2022-10-22T16:42:06.668Z,7.83
2022-10-22T16:44:36.148Z,8.73
2022-10-22T16:47:04.340Z,10.17
2022-10-22T16:49:32.278Z,8.27
2022-10-22T16:52:00.281Z,9.07
2022-10-22T16:54:28.229Z,7.77
2022-10-22T16:56:56.053Z,7.83
2022-10-22T16:59:24.018Z,9.03
2022-10-22T17:01:54.670Z,7.03
2022-10-22T17:04:23.622Z,10.27
2022-10-22T17:06:51.543Z,10.20
2022-10-22T17:09:19.480Z,9.90
2022-10-22T17:11:47.456Z,7.70
2022-10-22T17:14:15.471Z,8.40
2022-10-22T17:16:43.348Z,9.50
2022-10-22T17:19:15.759Z,8.83
2022-10-22T17:21:44.003Z,8.23
2022-10-22T17:24:11.973Z,9.60
2022-10-22T17:26:39.875Z,9.10
2022-10-22T17:29:07.958Z,9.17
2022-10-22T17:31:38.070Z,9.67
2022-10-22T17:34:07.871Z,9.17
2022-10-22T17:36:37.769Z,11.27
2022-10-22T17:39:07.948Z,12.00
2022-10-22T17:41:38.160Z,8.47
2022-10-22T17:44:09.089Z,11.70
2022-10-22T17:46:37.399Z,8.60
2022-10-22T17:49:09.140Z,10.50
2022-10-22T17:51:38.417Z,13.20
2022-10-22T17:54:09.021Z,8.50
2022-10-22T17:56:40.119Z,11.17
2022-10-22T17:59:08.265Z,8.93
2022-10-22T18:01:40.262Z,9.23
2022-10-22T18:04:09.470Z,9.83
2022-10-22T18:06:38.993Z,11.23
2022-10-22T18:09:08.091Z,7.37
2022-10-22T18:11:37.385Z,7.20
2022-10-22T18:14:05.810Z,14.03
2022-10-22T18:16:33.716Z,8.70
2022-10-22T18:19:01.898Z,9.87
2022-10-22T18:21:31.283Z,13.97
2022-10-22T18:24:00.702Z,9.30
2022-10-22T18:26:28.952Z,13.20
2022-10-22T18:28:58.339Z,11.87
2022-10-22T18:31:30.478Z,11.23
2022-10-22T18:33:58.904Z,10.80
2022-10-22T18:36:28.195Z,12.20
2022-10-22T18:38:58.022Z,11.17
2022-10-22T18:41:28.526Z,12.83
2022-10-22T18:43:58.842Z,12.17
2022-10-22T18:46:28.244Z,8.90
2022-10-22T18:48:56.636Z,13.67
2022-10-22T18:51:25.626Z,10.00
2022-10-22T18:54:11.359Z,8.57
2022-10-22T18:56:44.944Z,9.63
2022-10-22T18:59:18.815Z,10.50
2022-10-22T19:01:46.841Z,10.73
2022-10-22T19:04:15.059Z,12.67
2022-10-22T19:06:45.523Z,10.37
2022-10-22T19:09:14.903Z,9.83
2022-10-22T19:11:45.281Z,10.27
2022-10-22T19:14:15.047Z,12.40
2022-10-22T19:16:43.320Z,8.83
2022-10-22T19:19:16.090Z,10.97
2022-10-22T19:21:44.020Z,9.00
2022-10-22T19:24:12.586Z,7.93
2022-10-22T19:26:40.958Z,9.97
2022-10-22T19:29:11.623Z,8.97
2022-10-22T19:31:41.051Z,11.23
2022-10-22T19:34:08.960Z,9.90
2022-10-22T19:36:37.754Z,6.13
2022-10-22T19:39:07.869Z,12.40
2022-10-22T19:41:36.205Z,8.87
2022-10-22T19:44:04.416Z,9.27
2022-10-22T19:46:33.932Z,10.27
2022-10-22T19:49:04.360Z,8.70
2022-10-22T19:51:34.601Z,7.67
2022-10-22T19:54:05.100Z,10.70
2022-10-22T19:56:35.227Z,11.00
2022-10-22T19:59:03.442Z,7.70
2022-10-22T20:01:31.823Z,13.57
2022-10-22T20:04:01.750Z,6.93
2022-10-22T20:06:29.997Z,10.03
2022-10-22T20:08:58.168Z,10.60
2022-10-22T20:11:28.696Z,10.90
2022-10-22T20:13:57.273Z,9.83
2022-10-22T20:16:28.568Z,13.67
2022-10-22T20:19:00.826Z,10.03
2022-10-22T20:21:30.549Z,14.43
2022-10-22T20:23:59.509Z,9.53
2022-10-22T20:26:28.254Z,9.93
2022-10-22T20:28:57.638Z,13.37
2022-10-22T20:31:28.400Z,12.97
2022-10-22T20:33:59.204Z,11.37
2022-10-22T20:36:28.074Z,11.10
2022-10-22T20:39:00.690Z,12.67
2022-10-22T20:41:29.116Z,10.77
2022-10-22T20:43:57.331Z,10.90
2022-10-22T20:46:27.821Z,12.70
2022-10-22T20:48:59.543Z,13.00
2022-10-22T20:51:27.587Z,12.37
2022-10-22T20:53:57.181Z,11.70
2022-10-22T20:56:25.513Z,12.63
2022-10-22T20:59:04.204Z,14.93
2022-10-22T21:01:33.953Z,11.30
2022-10-22T21:04:02.669Z,10.33
2022-10-22T21:06:31.088Z,12.90
2022-10-22T21:09:00.459Z,12.10
2022-10-22T21:11:28.385Z,12.30
2022-10-22T21:13:56.549Z,11.90
2022-10-22T21:16:24.593Z,11.40
2022-10-22T21:18:52.565Z,11.40
2022-10-22T21:21:20.603Z,13.40
2022-10-22T21:23:50.228Z,15.33
2022-10-22T21:26:20.025Z,8.47
2022-10-22T21:28:48.589Z,10.70
2022-10-22T21:31:21.899Z,14.67
2022-10-22T21:33:51.527Z,13.60
2022-10-22T21:36:22.667Z,11.20
2022-10-22T21:38:51.514Z,11.90
2022-10-22T21:41:24.311Z,8.43
2022-10-22T21:43:52.688Z,9.93
2022-10-22T21:46:22.117Z,15.83
2022-10-22T21:48:55.040Z,14.00
2022-10-22T21:51:25.314Z,9.80
2022-10-22T21:53:55.154Z,7.67
2022-10-22T21:56:26.973Z,12.60
2022-10-22T21:58:55.684Z,11.77
2022-10-22T22:01:24.088Z,12.43
2022-10-22T22:03:52.992Z,12.80
2022-10-22T22:06:23.231Z,13.77
2022-10-22T22:08:53.905Z,10.87
2022-10-22T22:11:25.651Z,13.40
2022-10-22T22:13:54.250Z,13.03
2022-10-22T22:16:28.200Z,11.83
2022-10-22T22:18:57.969Z,13.70
2022-10-22T22:21:25.977Z,13.67
2022-10-22T22:23:53.832Z,13.17
2022-10-22T22:26:28.464Z,13.50
2022-10-22T22:28:58.660Z,11.33
2022-10-22T22:31:28.113Z,11.17
2022-10-22T22:33:59.143Z,13.03
2022-10-22T22:36:26.957Z,14.17
2022-10-22T22:38:55.839Z,11.73
2022-10-22T22:41:25.152Z,16.33
2022-10-22T22:43:52.973Z,9.47
2022-10-22T22:46:20.998Z,9.10
2022-10-22T22:48:49.592Z,14.10
2022-10-22T22:51:18.129Z,12.50
2022-10-22T22:53:46.384Z,12.30
2022-10-22T22:56:16.233Z,14.00
2022-10-22T22:58:45.538Z,10.03
2022-10-22T23:01:16.539Z,12.90
2022-10-22T23:03:45.918Z,12.77
2022-10-22T23:06:14.918Z,14.07
2022-10-22T23:08:43.792Z,12.27
2022-10-22T23:11:13.929Z,12.43
2022-10-22T23:13:43.485Z,15.73
2022-10-22T23:16:16.037Z,13.77
2022-10-22T23:18:44.269Z,12.07
2022-10-22T23:21:14.803Z,10.57
2022-10-22T23:23:44.989Z,12.60
2022-10-22T23:26:13.758Z,14.43
2022-10-22T23:28:41.820Z,13.70
2022-10-22T23:31:14.072Z,11.87
2022-10-22T23:33:42.162Z,15.37
2022-10-22T23:36:10.244Z,13.87
2022-10-22T23:38:40.223Z,13.23
2022-10-22T23:41:08.873Z,14.00
2022-10-22T23:43:37.875Z,16.27
2022-10-22T23:46:06.749Z,11.47
2022-10-22T23:48:36.562Z,12.77
2022-10-22T23:51:05.911Z,13.83
2022-10-22T23:53:34.075Z,12.77
2022-10-22T23:56:05.403Z,14.07
2022-10-22T23:58:33.391Z,15.53
